createdAt,value
2022-11-16T00:00:09.195Z,8.37
2022-11-16T00:01:09.210Z,8.40
2022-11-16T00:02:09.229Z,8.34
2022-11-16T00:03:09.201Z,8.36
2022-11-16T00:04:09.180Z,8.34
2022-11-16T00:05:09.204Z,8.30
2022-11-16T00:06:09.188Z,8.36
2022-11-16T00:07:09.227Z,8.29
2022-11-16T00:08:09.176Z,8.26
2022-11-16T00:09:09.179Z,8.30
2022-11-16T00:10:09.171Z,8.37
2022-11-16T00:11:09.194Z,8.30
2022-11-16T00:12:09.163Z,8.36
2022-11-16T00:13:09.158Z,8.34
2022-11-16T00:14:09.166Z,8.34
2022-11-16T00:15:09.200Z,8.29
2022-11-16T00:16:09.155Z,8.37
2022-11-16T00:17:09.161Z,8.36
2022-11-16T00:18:09.166Z,8.26
2022-11-16T00:19:09.140Z,8.30
2022-11-16T00:20:09.176Z,8.22
2022-11-16T00:21:09.160Z,8.18
2022-11-16T00:22:09.137Z,8.25
2022-11-16T00:23:09.139Z,8.25
2022-11-16T00:24:09.133Z,8.26
2022-11-16T00:25:09.141Z,8.19
2022-11-16T00:26:09.155Z,8.25
2022-11-16T00:27:09.135Z,8.22
2022-11-16T00:28:09.131Z,8.28
2022-11-16T00:29:09.129Z,8.25
2022-11-16T00:30:09.128Z,8.36
2022-11-16T00:31:09.116Z,8.25
2022-11-16T00:32:09.130Z,8.25
2022-11-16T00:33:09.142Z,8.25
2022-11-16T00:34:09.106Z,8.33
2022-11-16T00:35:09.121Z,8.26
2022-11-16T00:36:09.102Z,8.33
2022-11-16T00:37:09.107Z,8.30
2022-11-16T00:38:09.101Z,8.34
2022-11-16T00:39:09.121Z,8.36
2022-11-16T00:40:09.104Z,8.34
2022-11-16T00:41:09.086Z,8.34
2022-11-16T00:42:09.116Z,8.30
2022-11-16T00:43:09.103Z,8.36
2022-11-16T00:44:09.110Z,8.30
2022-11-16T00:45:09.087Z,8.33
2022-11-16T00:46:09.084Z,8.30
2022-11-16T00:47:09.094Z,8.30
2022-11-16T00:48:09.070Z,8.28
2022-11-16T00:49:09.081Z,8.30
2022-11-16T00:50:09.105Z,8.38
2022-11-16T00:51:09.062Z,8.34
2022-11-16T00:52:09.065Z,8.28
2022-11-16T00:53:09.070Z,8.34
2022-11-16T00:54:09.063Z,8.43
2022-11-16T00:55:09.064Z,8.30
2022-11-16T00:56:09.082Z,8.33
2022-11-16T00:57:09.051Z,8.41
2022-11-16T00:58:09.044Z,8.36
2022-11-16T00:59:09.063Z,8.29
2022-11-16T01:00:09.055Z,8.26
2022-11-16T01:01:09.079Z,8.36
2022-11-16T01:02:09.041Z,8.37
2022-11-16T01:03:09.035Z,8.30
2022-11-16T01:04:09.067Z,8.29
2022-11-16T01:05:09.038Z,8.30
2022-11-16T01:06:09.027Z,8.36
2022-11-16T01:07:09.052Z,8.28
2022-11-16T01:08:09.023Z,8.30
2022-11-16T01:09:09.033Z,8.36
2022-11-16T01:10:09.048Z,8.29
2022-11-16T01:11:09.031Z,8.34
2022-11-16T01:12:09.023Z,8.37
2022-11-16T01:13:09.013Z,8.30
2022-11-16T01:14:09.032Z,8.36
2022-11-16T01:15:09.037Z,8.36
2022-11-16T01:16:09.010Z,8.26
2022-11-16T01:17:09.003Z,8.30
2022-11-16T01:18:09.008Z,8.26
2022-11-16T01:19:08.994Z,8.25
2022-11-16T01:20:09.019Z,8.30
2022-11-16T01:21:09.013Z,8.22
2022-11-16T01:22:09.002Z,8.25
2022-11-16T01:23:08.999Z,8.25
2022-11-16T01:24:08.990Z,8.29
2022-11-16T01:25:09.002Z,8.18
2022-11-16T01:26:08.983Z,8.28
2022-11-16T01:27:08.994Z,8.28
2022-11-16T01:28:08.972Z,8.25
2022-11-16T01:29:08.988Z,8.23
2022-11-16T01:30:08.976Z,8.20
2022-11-16T01:31:08.980Z,8.20
2022-11-16T01:32:08.976Z,8.23
2022-11-16T01:33:08.985Z,8.20
2022-11-16T01:34:08.969Z,8.23
2022-11-16T01:35:08.962Z,8.16
2022-11-16T01:36:08.955Z,8.11
2022-11-16T01:37:08.953Z,8.16
2022-11-16T01:38:08.962Z,8.19
2022-11-16T01:39:08.958Z,8.12
2022-11-16T01:40:08.968Z,8.12
2022-11-16T01:41:08.951Z,8.12
2022-11-16T01:42:08.949Z,8.12
2022-11-16T01:43:08.949Z,8.11
2022-11-16T01:44:08.959Z,8.11
2022-11-16T01:45:08.955Z,8.11
2022-11-16T01:46:08.930Z,8.08
2022-11-16T01:47:08.933Z,8.15
2022-11-16T01:48:08.963Z,8.11
2022-11-16T01:49:08.941Z,8.05
2022-11-16T01:50:08.950Z,8.04
2022-11-16T01:51:08.923Z,8.05
2022-11-16T01:52:08.935Z,8.11
2022-11-16T01:53:08.924Z,8.08
2022-11-16T01:54:08.936Z,8.11
2022-11-16T01:55:08.915Z,8.05
2022-11-16T01:56:08.967Z,8.05
2022-11-16T01:57:08.912Z,8.08
2022-11-16T01:58:08.912Z,8.11
2022-11-16T01:59:08.911Z,8.05
2022-11-16T02:00:08.919Z,8.07
2022-11-16T02:01:08.972Z,8.16
2022-11-16T02:02:08.911Z,8.07
2022-11-16T02:03:08.891Z,8.12
2022-11-16T02:04:08.897Z,8.01
2022-11-16T02:05:08.882Z,8.01
2022-11-16T02:06:08.890Z,8.01
2022-11-16T02:07:08.923Z,8.07
2022-11-16T02:08:08.883Z,8.08
2022-11-16T02:09:08.872Z,8.04
2022-11-16T02:10:08.882Z,8.04
2022-11-16T02:11:08.872Z,7.97
2022-11-16T02:12:08.889Z,8.00
2022-11-16T02:13:08.889Z,8.04
2022-11-16T02:14:08.862Z,8.04
2022-11-16T02:15:08.872Z,8.05
2022-11-16T02:16:08.866Z,8.02
2022-11-16T02:17:08.868Z,8.08
2022-11-16T02:18:08.866Z,8.04
2022-11-16T02:19:08.875Z,8.02
2022-11-16T02:20:08.858Z,8.01
2022-11-16T02:21:08.847Z,7.90
2022-11-16T02:22:09.575Z,7.95
2022-11-16T02:23:08.853Z,7.95
2022-11-16T02:24:08.849Z,7.97
2022-11-16T02:25:08.834Z,7.89
2022-11-16T02:26:08.849Z,7.87
2022-11-16T02:27:08.844Z,7.82
2022-11-16T02:28:08.834Z,7.82
2022-11-16T02:29:08.826Z,7.83
2022-11-16T02:30:08.832Z,7.85
2022-11-16T02:31:08.832Z,7.85
2022-11-16T02:32:08.831Z,7.90
2022-11-16T02:33:08.820Z,7.80
2022-11-16T02:34:08.811Z,7.95
2022-11-16T02:35:08.829Z,7.87
2022-11-16T02:36:08.814Z,7.89
2022-11-16T02:37:08.807Z,7.90
2022-11-16T02:38:08.797Z,7.89
2022-11-16T02:39:08.801Z,7.92
2022-11-16T02:40:08.803Z,7.92
2022-11-16T02:41:08.820Z,7.93
2022-11-16T02:42:08.825Z,7.90
2022-11-16T02:43:08.788Z,7.87
2022-11-16T02:44:08.784Z,7.87
2022-11-16T02:45:08.781Z,7.85
2022-11-16T02:46:08.796Z,7.85
2022-11-16T02:47:08.791Z,7.92
2022-11-16T02:48:08.795Z,7.75
2022-11-16T02:49:08.776Z,7.77
2022-11-16T02:50:08.779Z,7.80
2022-11-16T02:51:08.773Z,7.82
2022-11-16T02:52:08.773Z,7.74
2022-11-16T02:53:08.771Z,7.72
2022-11-16T02:54:08.771Z,7.77
2022-11-16T02:55:08.759Z,7.80
2022-11-16T02:56:08.756Z,7.74
2022-11-16T02:57:08.752Z,7.82
2022-11-16T02:58:08.771Z,7.77
2022-11-16T02:59:08.757Z,7.79
2022-11-16T03:00:08.757Z,7.74
2022-11-16T03:01:08.838Z,7.77
2022-11-16T03:02:08.748Z,7.74
2022-11-16T03:03:08.747Z,7.82
2022-11-16T03:04:08.751Z,7.82
2022-11-16T03:05:08.735Z,7.85
2022-11-16T03:06:08.742Z,7.74
2022-11-16T03:07:08.800Z,7.74
2022-11-16T03:08:08.753Z,7.80
2022-11-16T03:09:08.735Z,7.67
2022-11-16T03:10:08.734Z,7.77
2022-11-16T03:11:08.734Z,7.72
2022-11-16T03:12:08.726Z,7.68
2022-11-16T03:13:08.712Z,7.82
2022-11-16T03:14:08.734Z,7.75
2022-11-16T03:15:08.719Z,7.72
2022-11-16T03:16:08.726Z,7.69
2022-11-16T03:17:08.701Z,7.74
2022-11-16T03:18:08.708Z,7.68
2022-11-16T03:19:08.722Z,7.72
2022-11-16T03:20:08.692Z,7.72
2022-11-16T03:21:08.702Z,7.69
2022-11-16T03:22:08.692Z,7.69
2022-11-16T03:23:08.700Z,7.69
2022-11-16T03:24:08.704Z,7.64
2022-11-16T03:25:08.690Z,7.57
2022-11-16T03:26:08.694Z,7.67
2022-11-16T03:27:08.686Z,7.58
2022-11-16T03:28:08.692Z,7.61
2022-11-16T03:29:08.695Z,7.55
2022-11-16T03:30:08.686Z,7.58
2022-11-16T03:31:08.673Z,7.55
2022-11-16T03:32:08.682Z,7.64
2022-11-16T03:33:08.676Z,7.57
2022-11-16T03:34:08.678Z,7.58
2022-11-16T03:35:09.530Z,7.68
2022-11-16T03:36:08.653Z,7.67
2022-11-16T03:37:08.665Z,7.61
2022-11-16T03:38:08.655Z,7.58
2022-11-16T03:39:08.647Z,7.63
2022-11-16T03:40:08.682Z,7.55
2022-11-16T03:41:08.653Z,7.61
2022-11-16T03:42:08.639Z,7.57
2022-11-16T03:43:08.652Z,7.64
2022-11-16T03:44:08.654Z,7.61
2022-11-16T03:45:08.633Z,7.58
2022-11-16T03:46:08.630Z,7.45
2022-11-16T03:47:08.632Z,7.58
2022-11-16T03:48:08.636Z,7.58
2022-11-16T03:49:08.639Z,7.52
2022-11-16T03:50:08.635Z,7.52
2022-11-16T03:51:08.626Z,7.52
2022-11-16T03:52:08.622Z,7.45
2022-11-16T03:53:08.622Z,7.52
2022-11-16T03:54:08.616Z,7.53
2022-11-16T03:55:08.619Z,7.52
2022-11-16T03:56:08.607Z,7.48
2022-11-16T03:57:08.600Z,7.46
2022-11-16T03:58:08.605Z,7.55
2022-11-16T03:59:08.601Z,7.53
2022-11-16T04:00:08.607Z,7.58
2022-11-16T04:01:08.644Z,7.52
2022-11-16T04:02:08.586Z,7.58
2022-11-16T04:03:08.581Z,7.53
2022-11-16T04:04:08.593Z,7.57
2022-11-16T04:05:08.592Z,7.60
2022-11-16T04:06:08.598Z,7.58
2022-11-16T04:07:08.656Z,7.58
2022-11-16T04:08:08.580Z,7.55
2022-11-16T04:09:08.564Z,7.50
2022-11-16T04:10:08.558Z,7.50
2022-11-16T04:11:08.563Z,7.58
2022-11-16T04:12:08.571Z,7.57
2022-11-16T04:13:08.565Z,7.53
2022-11-16T04:14:09.347Z,7.60
2022-11-16T04:15:08.552Z,7.57
2022-11-16T04:16:08.560Z,7.57
2022-11-16T04:17:08.566Z,7.61
2022-11-16T04:18:08.567Z,7.55
2022-11-16T04:19:08.551Z,7.57
2022-11-16T04:20:08.543Z,7.60
2022-11-16T04:21:08.538Z,7.60
2022-11-16T04:22:08.543Z,7.58
2022-11-16T04:23:08.559Z,7.71
2022-11-16T04:24:08.534Z,7.58
2022-11-16T04:25:08.533Z,7.71
2022-11-16T04:26:08.532Z,7.57
2022-11-16T04:27:08.519Z,7.74
2022-11-16T04:28:08.530Z,7.71
2022-11-16T04:29:08.512Z,7.60
2022-11-16T04:30:08.519Z,7.69
2022-11-16T04:31:08.527Z,7.75
2022-11-16T04:32:08.505Z,7.69
2022-11-16T04:33:08.530Z,7.68
2022-11-16T04:34:08.523Z,7.60
2022-11-16T04:35:08.507Z,7.74
2022-11-16T04:36:08.512Z,7.69
2022-11-16T04:37:08.494Z,7.68
2022-11-16T04:38:08.526Z,7.69
2022-11-16T04:39:08.514Z,7.71
2022-11-16T04:40:08.510Z,7.68
2022-11-16T04:41:08.500Z,7.75
2022-11-16T04:42:08.495Z,7.69
2022-11-16T04:43:08.477Z,7.72
2022-11-16T04:44:08.485Z,7.68
2022-11-16T04:45:08.503Z,7.67
2022-11-16T04:46:08.476Z,7.67
2022-11-16T04:47:08.465Z,7.69
2022-11-16T04:48:08.466Z,7.77
2022-11-16T04:49:08.480Z,7.67
2022-11-16T04:50:08.480Z,7.82
2022-11-16T04:51:08.478Z,7.77
2022-11-16T04:52:08.461Z,7.67
2022-11-16T04:53:08.467Z,7.80
2022-11-16T04:54:08.453Z,7.77
2022-11-16T04:55:08.469Z,7.79
2022-11-16T04:56:08.468Z,7.79
2022-11-16T04:57:08.457Z,7.83
2022-11-16T04:58:08.435Z,7.77
2022-11-16T04:59:08.439Z,7.79
2022-11-16T05:00:08.446Z,7.79
2022-11-16T05:01:08.487Z,7.83
2022-11-16T05:02:08.471Z,7.86
2022-11-16T05:03:08.425Z,7.83
2022-11-16T05:04:08.437Z,7.80
2022-11-16T05:05:08.430Z,7.92
2022-11-16T05:06:08.432Z,7.80
2022-11-16T05:07:08.438Z,7.77
2022-11-16T05:08:09.296Z,7.83
2022-11-16T05:09:08.413Z,7.80
2022-11-16T05:10:08.441Z,7.80
2022-11-16T05:11:08.425Z,7.80
2022-11-16T05:12:08.422Z,7.85
2022-11-16T05:13:08.403Z,7.83
2022-11-16T05:14:08.414Z,7.83
2022-11-16T05:15:08.409Z,7.80
2022-11-16T05:16:08.426Z,7.74
2022-11-16T05:17:08.390Z,7.82
2022-11-16T05:18:08.406Z,7.80
2022-11-16T05:19:08.542Z,7.77
2022-11-16T05:20:08.390Z,7.83
2022-11-16T05:21:08.396Z,7.82
2022-11-16T05:22:08.409Z,7.83
2022-11-16T05:23:08.386Z,7.82
2022-11-16T05:24:08.392Z,7.75
2022-11-16T05:25:08.381Z,7.80
2022-11-16T05:26:08.371Z,7.85
2022-11-16T05:27:08.392Z,7.92
2022-11-16T05:28:08.366Z,7.85
2022-11-16T05:29:08.364Z,7.82
2022-11-16T05:30:08.371Z,7.93
2022-11-16T05:31:08.367Z,7.80
2022-11-16T05:32:08.380Z,7.90
2022-11-16T05:33:08.368Z,7.89
2022-11-16T05:34:08.381Z,7.93
2022-11-16T05:35:08.345Z,7.90
2022-11-16T05:36:08.365Z,7.92
2022-11-16T05:37:08.364Z,7.89
2022-11-16T05:38:08.368Z,7.87
2022-11-16T05:39:08.337Z,7.90
2022-11-16T05:40:08.335Z,7.93
2022-11-16T05:41:08.353Z,7.92
2022-11-16T05:42:08.342Z,7.92
2022-11-16T05:43:08.325Z,7.92
2022-11-16T05:44:08.361Z,7.97
2022-11-16T05:45:08.337Z,7.92
2022-11-16T05:46:08.326Z,7.92
2022-11-16T05:47:08.321Z,7.93
2022-11-16T05:48:08.321Z,7.92
2022-11-16T05:49:08.326Z,7.93
2022-11-16T05:50:08.309Z,7.93
2022-11-16T05:51:08.314Z,7.92
2022-11-16T05:52:08.323Z,7.98
2022-11-16T05:53:08.310Z,7.93
2022-11-16T05:54:08.317Z,7.95
2022-11-16T05:55:08.294Z,7.97
2022-11-16T05:56:08.373Z,7.97
2022-11-16T05:57:08.302Z,8.00
2022-11-16T05:58:08.299Z,7.97
2022-11-16T05:59:11.229Z,7.98
2022-11-16T06:00:08.296Z,7.93
2022-11-16T06:01:08.295Z,7.97
2022-11-16T06:02:08.284Z,7.92
2022-11-16T06:03:08.341Z,7.97
2022-11-16T06:04:08.308Z,7.92
2022-11-16T06:05:08.273Z,8.00
2022-11-16T06:06:08.266Z,8.00
2022-11-16T06:07:08.317Z,8.00
2022-11-16T06:08:08.267Z,8.02
2022-11-16T06:09:08.260Z,7.98
2022-11-16T06:10:09.069Z,8.00
2022-11-16T06:11:08.280Z,8.01
2022-11-16T06:12:08.259Z,8.00
2022-11-16T06:13:08.262Z,8.02
2022-11-16T06:14:08.249Z,8.04
2022-11-16T06:15:08.253Z,8.04
2022-11-16T06:16:13.514Z,8.00
2022-11-16T06:17:08.416Z,8.02
2022-11-16T06:18:08.251Z,8.04
2022-11-16T06:19:08.239Z,7.97
2022-11-16T06:20:08.227Z,8.08
2022-11-16T06:21:08.251Z,8.02
2022-11-16T06:22:08.262Z,8.04
2022-11-16T06:23:08.222Z,8.11
2022-11-16T06:24:08.221Z,8.01
2022-11-16T06:25:08.233Z,8.10
2022-11-16T06:26:08.232Z,8.08
2022-11-16T06:27:08.212Z,8.05
2022-11-16T06:28:08.492Z,8.18
2022-11-16T06:29:08.209Z,8.12
2022-11-16T06:30:08.203Z,8.12
2022-11-16T06:31:08.213Z,8.08
2022-11-16T06:32:08.217Z,8.11
2022-11-16T06:33:08.205Z,8.16
2022-11-16T06:34:08.196Z,8.10
2022-11-16T06:35:08.205Z,8.20
2022-11-16T06:36:08.203Z,8.18
2022-11-16T06:37:08.193Z,8.22
2022-11-16T06:38:08.191Z,8.19
2022-11-16T06:39:08.193Z,8.20
2022-11-16T06:40:08.190Z,8.23
2022-11-16T06:41:08.177Z,8.22
2022-11-16T06:42:08.199Z,8.19
2022-11-16T06:43:08.184Z,8.19
2022-11-16T06:44:08.218Z,8.22
2022-11-16T06:45:08.178Z,8.19
2022-11-16T06:46:08.204Z,8.22
2022-11-16T06:47:08.162Z,8.20
2022-11-16T06:48:08.160Z,8.20
2022-11-16T06:49:08.454Z,8.19
2022-11-16T06:50:08.174Z,8.18
2022-11-16T06:51:08.160Z,8.23
2022-11-16T06:52:08.191Z,8.22
2022-11-16T06:53:08.175Z,8.20
2022-11-16T06:54:08.145Z,8.22
2022-11-16T06:55:08.163Z,8.23
2022-11-16T06:56:08.148Z,8.20
2022-11-16T06:57:08.135Z,8.23
2022-11-16T06:58:08.148Z,8.22
2022-11-16T06:59:08.146Z,8.16
2022-11-16T07:00:08.152Z,8.26
2022-11-16T07:01:08.147Z,8.18
2022-11-16T07:02:08.197Z,8.26
2022-11-16T07:03:08.120Z,8.19
2022-11-16T07:04:08.135Z,8.19
2022-11-16T07:05:08.201Z,8.22
2022-11-16T07:06:08.200Z,8.15
2022-11-16T07:07:08.164Z,8.16
2022-11-16T07:08:08.122Z,8.18
2022-11-16T07:09:08.103Z,8.22
2022-11-16T07:10:08.109Z,8.12
2022-11-16T07:11:08.126Z,8.19
2022-11-16T07:12:08.100Z,8.22
2022-11-16T07:13:08.105Z,8.19
2022-11-16T07:14:08.091Z,8.19
2022-11-16T07:15:08.116Z,8.26
2022-11-16T07:16:08.096Z,8.18
2022-11-16T07:17:09.620Z,8.18
2022-11-16T07:18:08.104Z,8.16
2022-11-16T07:19:08.286Z,8.29
2022-11-16T07:20:08.083Z,8.28
2022-11-16T07:21:08.172Z,8.25
2022-11-16T07:22:08.096Z,8.33
2022-11-16T07:23:12.877Z,8.29
2022-11-16T07:24:08.079Z,8.34
2022-11-16T07:25:08.080Z,8.20
2022-11-16T07:26:08.065Z,8.38
2022-11-16T07:27:08.057Z,8.30
2022-11-16T07:28:08.081Z,8.33
2022-11-16T07:29:08.054Z,8.29
2022-11-16T07:30:08.074Z,8.33
2022-11-16T07:31:08.072Z,8.40
2022-11-16T07:32:08.066Z,8.36
2022-11-16T07:33:08.052Z,8.38
2022-11-16T07:34:08.064Z,8.36
2022-11-16T07:35:08.047Z,8.40
2022-11-16T07:36:08.053Z,8.37
2022-11-16T07:37:08.048Z,8.36
2022-11-16T07:38:08.050Z,8.37
2022-11-16T07:39:08.042Z,8.37
2022-11-16T07:40:08.027Z,8.29
2022-11-16T07:41:08.027Z,8.34
2022-11-16T07:42:08.033Z,8.43
2022-11-16T07:43:08.019Z,8.43
2022-11-16T07:44:11.917Z,8.38
2022-11-16T07:45:08.010Z,8.41
2022-11-16T07:46:44.548Z,8.41
2022-11-16T07:47:08.011Z,8.40
2022-11-16T07:48:08.028Z,8.44
2022-11-16T07:49:11.285Z,8.43
2022-11-16T07:50:08.036Z,8.36
2022-11-16T07:51:08.000Z,8.43
2022-11-16T07:52:08.004Z,8.43
2022-11-16T07:53:08.255Z,8.44
2022-11-16T07:54:08.013Z,8.41
2022-11-16T07:55:08.001Z,8.43
2022-11-16T07:56:08.002Z,8.45
2022-11-16T07:57:07.994Z,8.40
2022-11-16T07:58:07.996Z,8.41
2022-11-16T07:59:07.984Z,8.50
2022-11-16T08:00:07.978Z,8.50
2022-11-16T08:01:07.994Z,8.45
2022-11-16T08:02:08.043Z,8.40
2022-11-16T08:03:07.980Z,8.52
2022-11-16T08:04:08.027Z,8.55
2022-11-16T08:05:07.995Z,8.53
2022-11-16T08:06:07.971Z,8.53
2022-11-16T08:07:08.014Z,8.61
2022-11-16T08:08:07.976Z,8.56
2022-11-16T08:09:07.971Z,8.55
2022-11-16T08:10:08.050Z,8.53
2022-11-16T08:11:07.980Z,8.53
2022-11-16T08:12:07.972Z,8.50
2022-11-16T08:13:07.962Z,8.55
2022-11-16T08:14:07.958Z,8.50
2022-11-16T08:15:07.944Z,8.55
2022-11-16T08:16:07.974Z,8.56
2022-11-16T08:17:07.995Z,8.59
2022-11-16T08:18:07.963Z,8.53
2022-11-16T08:19:07.940Z,8.58
2022-11-16T08:20:07.968Z,8.58
2022-11-16T08:21:08.089Z,8.56
2022-11-16T08:22:08.084Z,8.55
2022-11-16T08:23:09.600Z,8.56
2022-11-16T08:24:09.232Z,8.56
2022-11-16T08:25:08.624Z,8.58
2022-11-16T08:26:08.599Z,8.58
2022-11-16T08:27:09.605Z,8.58
2022-11-16T08:28:08.610Z,8.55
2022-11-16T08:29:08.049Z,8.59
2022-11-16T08:30:07.916Z,8.62
2022-11-16T08:31:07.938Z,8.58
2022-11-16T08:32:07.951Z,8.59
2022-11-16T08:33:07.911Z,8.58
2022-11-16T08:34:07.911Z,8.61
2022-11-16T08:35:07.926Z,8.65
2022-11-16T08:36:13.611Z,8.56
2022-11-16T08:37:07.905Z,8.58
2022-11-16T08:38:07.981Z,8.59
2022-11-16T08:39:07.900Z,8.56
2022-11-16T08:40:07.898Z,8.56
2022-11-16T08:41:07.976Z,8.58
2022-11-16T08:42:07.912Z,8.58
2022-11-16T08:43:07.894Z,8.55
2022-11-16T08:44:07.897Z,8.59
2022-11-16T08:45:07.883Z,8.58
2022-11-16T08:46:07.873Z,8.65
2022-11-16T08:47:07.865Z,8.53
2022-11-16T08:48:07.931Z,8.53
2022-11-16T08:49:07.873Z,8.56
2022-11-16T08:50:07.885Z,8.59
2022-11-16T08:51:17.407Z,8.48
2022-11-16T08:52:07.859Z,8.52
2022-11-16T08:53:07.877Z,8.56
2022-11-16T08:54:07.895Z,8.59
2022-11-16T08:55:07.891Z,8.52
2022-11-16T08:56:07.894Z,8.59
2022-11-16T08:57:07.959Z,8.59
2022-11-16T08:58:07.845Z,8.58
2022-11-16T08:59:07.863Z,8.56
2022-11-16T09:00:07.847Z,8.58
2022-11-16T09:01:07.935Z,8.61
2022-11-16T09:02:08.199Z,8.55
2022-11-16T09:03:07.898Z,8.56
2022-11-16T09:04:09.785Z,8.62
2022-11-16T09:05:09.952Z,8.56
2022-11-16T09:06:08.724Z,8.59
2022-11-16T09:07:08.791Z,8.58
2022-11-16T09:08:08.609Z,8.56
2022-11-16T09:09:09.308Z,8.58
2022-11-16T09:10:08.739Z,8.59
2022-11-16T09:11:07.854Z,8.58
2022-11-16T09:12:07.958Z,8.56
2022-11-16T09:13:07.879Z,8.53
2022-11-16T09:14:10.324Z,8.55
2022-11-16T09:15:09.851Z,8.50
2022-11-16T09:16:07.834Z,8.56
2022-11-16T09:17:09.436Z,8.59
2022-11-16T09:18:07.948Z,8.59
2022-11-16T09:19:07.813Z,8.55
2022-11-16T09:20:07.865Z,8.59
2022-11-16T09:21:08.619Z,8.55
2022-11-16T09:22:07.806Z,8.61
2022-11-16T09:23:07.912Z,8.59
2022-11-16T09:24:08.630Z,8.61
2022-11-16T09:25:12.126Z,8.55
2022-11-16T09:26:07.841Z,8.59
2022-11-16T09:27:07.839Z,8.61
2022-11-16T09:28:07.851Z,8.63
2022-11-16T09:29:08.778Z,8.58
2022-11-16T09:30:07.782Z,8.53
2022-11-16T09:31:07.799Z,8.61
2022-11-16T09:32:07.780Z,8.56
2022-11-16T09:33:07.769Z,8.58
2022-11-16T09:34:07.767Z,8.61
2022-11-16T09:35:09.620Z,8.56
2022-11-16T09:36:07.782Z,8.58
2022-11-16T09:37:07.777Z,8.58
2022-11-16T09:38:07.806Z,8.65
2022-11-16T09:39:29.407Z,8.56
2022-11-16T09:40:07.740Z,8.58
2022-11-16T09:41:07.748Z,8.58
2022-11-16T09:42:07.745Z,8.55
2022-11-16T09:43:08.269Z,8.58
2022-11-16T09:44:07.761Z,8.62
2022-11-16T09:45:07.846Z,8.68
2022-11-16T09:46:07.833Z,8.61
2022-11-16T09:47:07.739Z,8.63
2022-11-16T09:48:08.626Z,8.62
2022-11-16T09:49:16.880Z,8.65
2022-11-16T09:50:08.797Z,8.62
2022-11-16T09:51:07.751Z,8.62
2022-11-16T09:52:07.726Z,8.62
2022-11-16T09:53:10.639Z,8.55
2022-11-16T09:54:09.637Z,8.58
2022-11-16T09:55:13.290Z,8.63
2022-11-16T09:56:14.504Z,8.59
2022-11-16T09:57:12.365Z,8.58
2022-11-16T09:58:09.646Z,8.58
2022-11-16T09:59:16.696Z,8.56
2022-11-16T10:00:07.693Z,8.52
2022-11-16T10:01:09.662Z,8.53
2022-11-16T10:02:09.155Z,8.55
2022-11-16T10:03:09.646Z,8.55
2022-11-16T10:04:08.625Z,8.56
2022-11-16T10:05:07.699Z,8.55
2022-11-16T10:06:07.773Z,8.66
2022-11-16T10:07:07.778Z,8.61
2022-11-16T10:08:07.791Z,8.62
2022-11-16T10:09:07.689Z,8.65
2022-11-16T10:10:07.750Z,8.65
2022-11-16T10:11:08.627Z,8.61
2022-11-16T10:12:07.729Z,8.66
2022-11-16T10:13:07.685Z,8.63
2022-11-16T10:14:07.687Z,8.68
2022-11-16T10:15:07.654Z,8.61
2022-11-16T10:16:07.671Z,8.66
2022-11-16T10:17:07.660Z,8.58
2022-11-16T10:18:07.650Z,8.65
2022-11-16T10:19:08.629Z,8.74
2022-11-16T10:20:07.742Z,8.68
2022-11-16T10:21:09.128Z,8.73
2022-11-16T10:22:07.674Z,8.74
2022-11-16T10:23:07.661Z,8.66
2022-11-16T10:24:07.672Z,8.66
2022-11-16T10:25:07.629Z,8.63
2022-11-16T10:26:07.641Z,8.66
2022-11-16T10:27:07.645Z,8.59
2022-11-16T10:28:07.620Z,8.58
2022-11-16T10:29:07.632Z,8.61
2022-11-16T10:30:07.640Z,8.63
2022-11-16T10:31:08.363Z,8.62
2022-11-16T10:32:07.655Z,8.62
2022-11-16T10:33:11.163Z,8.66
2022-11-16T10:34:07.610Z,8.61
2022-11-16T10:35:07.658Z,8.63
2022-11-16T10:36:11.636Z,8.66
2022-11-16T10:37:08.223Z,8.65
2022-11-16T10:38:07.645Z,8.65
2022-11-16T10:39:07.933Z,8.63
2022-11-16T10:40:08.345Z,8.56
2022-11-16T10:41:07.614Z,8.59
2022-11-16T10:42:08.216Z,8.61
2022-11-16T10:43:07.592Z,8.58
2022-11-16T10:44:07.728Z,8.58
2022-11-16T10:45:10.140Z,8.52
2022-11-16T10:46:08.137Z,8.50
2022-11-16T10:47:07.593Z,8.53
2022-11-16T10:48:07.639Z,8.56
2022-11-16T10:49:07.593Z,8.59
2022-11-16T10:50:07.570Z,8.55
2022-11-16T10:51:07.578Z,8.59
2022-11-16T10:52:07.678Z,8.55
2022-11-16T10:53:07.626Z,8.56
2022-11-16T10:54:07.612Z,8.55
2022-11-16T10:55:07.640Z,8.55
2022-11-16T10:56:07.596Z,8.56
2022-11-16T10:57:07.582Z,8.55
2022-11-16T10:58:07.554Z,8.56
2022-11-16T10:59:07.567Z,8.50
2022-11-16T11:00:12.480Z,8.47
2022-11-16T11:01:07.616Z,8.55
2022-11-16T11:02:08.140Z,8.50
2022-11-16T11:03:07.585Z,8.47
2022-11-16T11:04:07.583Z,8.48
2022-11-16T11:05:07.590Z,8.55
2022-11-16T11:06:07.540Z,8.55
2022-11-16T11:07:07.631Z,8.56
2022-11-16T11:08:07.542Z,8.50
2022-11-16T11:09:08.642Z,8.56
2022-11-16T11:10:07.535Z,8.48
2022-11-16T11:11:07.528Z,8.58
2022-11-16T11:12:07.583Z,8.53
2022-11-16T11:13:09.148Z,8.50
2022-11-16T11:14:07.624Z,8.52
2022-11-16T11:15:07.626Z,8.48
2022-11-16T11:16:08.355Z,8.45
2022-11-16T11:17:10.647Z,8.50
2022-11-16T11:18:07.538Z,8.44
2022-11-16T11:19:08.281Z,8.48
2022-11-16T11:20:08.989Z,8.45
2022-11-16T11:21:07.698Z,8.41
2022-11-16T11:22:11.147Z,8.41
2022-11-16T11:23:10.146Z,8.41
2022-11-16T11:24:42.385Z,8.40
2022-11-16T11:25:07.509Z,8.37
2022-11-16T11:26:07.491Z,8.41
2022-11-16T11:27:07.528Z,8.38
2022-11-16T11:28:07.484Z,8.30
2022-11-16T11:29:07.522Z,8.30
2022-11-16T11:30:07.483Z,8.34
2022-11-16T11:31:07.504Z,8.29
2022-11-16T11:32:07.503Z,8.40
2022-11-16T11:33:07.466Z,8.34
2022-11-16T11:34:07.501Z,8.41
2022-11-16T11:35:07.462Z,8.41
2022-11-16T11:36:07.465Z,8.40
2022-11-16T11:37:07.464Z,8.33
2022-11-16T11:38:08.436Z,8.33
2022-11-16T11:39:07.489Z,8.40
2022-11-16T11:40:07.471Z,8.28
2022-11-16T11:41:08.146Z,8.29
2022-11-16T11:42:07.441Z,8.37
2022-11-16T11:43:07.443Z,8.38
2022-11-16T11:44:07.437Z,8.34
2022-11-16T11:45:07.435Z,8.34
2022-11-16T11:46:07.437Z,8.44
2022-11-16T11:47:50.536Z,8.36
2022-11-16T11:48:07.454Z,8.25
2022-11-16T11:49:07.462Z,8.26
2022-11-16T11:50:07.423Z,8.33
2022-11-16T11:51:07.463Z,8.36
2022-11-16T11:52:07.418Z,8.26
2022-11-16T11:53:07.499Z,8.33
2022-11-16T11:54:07.424Z,8.38
2022-11-16T11:55:07.420Z,8.28
2022-11-16T11:56:07.417Z,8.29
2022-11-16T11:57:07.397Z,8.34
2022-11-16T11:58:07.444Z,8.37
2022-11-16T11:59:07.430Z,8.47
2022-11-16T12:00:07.404Z,8.33
2022-11-16T12:01:07.397Z,8.29
2022-11-16T12:02:07.391Z,8.28
2022-11-16T12:03:07.436Z,8.33
2022-11-16T12:04:07.387Z,8.36
2022-11-16T12:05:07.412Z,8.29
2022-11-16T12:06:07.371Z,8.29
2022-11-16T12:07:07.467Z,8.28
2022-11-16T12:08:07.374Z,8.33
2022-11-16T12:09:07.453Z,8.29
2022-11-16T12:10:07.360Z,8.30
2022-11-16T12:11:07.375Z,8.29
2022-11-16T12:12:10.451Z,8.28
2022-11-16T12:13:07.368Z,8.30
2022-11-16T12:14:07.362Z,8.34
2022-11-16T12:15:07.352Z,8.30
2022-11-16T12:16:07.474Z,8.37
2022-11-16T12:17:07.376Z,8.40
2022-11-16T12:18:07.363Z,8.34
2022-11-16T12:19:07.367Z,8.29
2022-11-16T12:20:07.357Z,8.34
2022-11-16T12:21:07.345Z,8.26
2022-11-16T12:22:07.364Z,8.33
2022-11-16T12:23:07.357Z,8.41
2022-11-16T12:24:07.409Z,8.40
2022-11-16T12:25:08.202Z,8.38
2022-11-16T12:26:07.564Z,8.29
2022-11-16T12:27:08.157Z,8.30
2022-11-16T12:28:08.170Z,8.30
2022-11-16T12:29:08.357Z,8.40
2022-11-16T12:30:14.696Z,8.30
2022-11-16T12:31:08.184Z,8.36
2022-11-16T12:32:07.448Z,8.36
2022-11-16T12:33:08.172Z,8.38
2022-11-16T12:34:09.159Z,8.36
2022-11-16T12:35:07.432Z,8.34
2022-11-16T12:36:07.344Z,8.34
2022-11-16T12:37:07.299Z,8.34
2022-11-16T12:38:07.328Z,8.30
2022-11-16T12:39:09.663Z,8.28
2022-11-16T12:40:07.298Z,8.34
2022-11-16T12:41:08.164Z,8.38
2022-11-16T12:42:07.342Z,8.36
2022-11-16T12:43:07.384Z,8.26
2022-11-16T12:44:08.160Z,8.30
2022-11-16T12:45:08.660Z,8.29
2022-11-16T12:46:07.357Z,8.30
2022-11-16T12:47:07.280Z,8.30
2022-11-16T12:48:07.266Z,8.30
2022-11-16T12:49:07.309Z,8.45
2022-11-16T12:50:07.285Z,8.40
2022-11-16T12:51:07.279Z,8.45
2022-11-16T12:52:09.172Z,8.41
2022-11-16T12:53:07.265Z,8.44
2022-11-16T12:54:07.281Z,8.37
2022-11-16T12:56:07.393Z,8.43
2022-11-16T12:57:07.357Z,8.40
2022-11-16T12:58:07.245Z,8.40
2022-11-16T12:59:07.301Z,8.43
2022-11-16T13:00:07.270Z,8.41
2022-11-16T13:01:08.393Z,8.38
2022-11-16T13:02:10.719Z,8.38
2022-11-16T13:03:11.170Z,8.36
2022-11-16T13:04:10.188Z,8.43
2022-11-16T13:05:08.181Z,8.40
2022-11-16T13:06:07.239Z,8.38
2022-11-16T13:07:10.964Z,8.45
2022-11-16T13:08:08.669Z,8.43
2022-11-16T13:09:07.251Z,8.40
2022-11-16T13:10:08.175Z,8.38
2022-11-16T13:11:07.243Z,8.37
2022-11-16T13:12:08.899Z,8.41
2022-11-16T13:13:35.989Z,8.40
2022-11-16T13:14:36.189Z,8.44
2022-11-16T13:16:09.743Z,8.38
2022-11-16T13:17:09.473Z,8.41
2022-11-16T13:18:09.669Z,8.47
2022-11-16T13:19:13.174Z,8.44
2022-11-16T13:20:11.674Z,8.41